Autoridad de Aeronautica Civil de Panamá


metar




ESTACIONES DESCRIPCION
MPTO (M) 120300Z 31004KT 9999 SCT018 25/24 Q1011 NOSIG=  
MPBO (M)  
MPCH (M)  
MPSA (M)  
MPCE (M)  
MPPN (M)  
MPSM (M) 120300Z 34007KT(E) 9999 FEW030 BKN080 26/24 Q1011  
MPJE FUERA DE SERVICIO  
MPPA (M) 120300Z 35004KT 9999 FEW16 25/24 Q1011=  
MPMG (M) 120300Z 31004KT 9999 FEW016 SCT080 26/24 Q1011 NOSIG  
MPDA (M)  
MPVR (M)  
MPWN FUERA DE SERVICIO  
MPOA (M)  
MPMF (M)  
MPEJ (M)  


 

CLIMATICAS

MPTO

11 DICIEMBRE 2019

 

PCPN (mm)

T° MAX

T° MIN

VIENTO MAX (KT)

HORA

VIENTO PREDOM (KT)

9.2

29.3

23.3

05009KT

1812Z

NE05KT

CLIMATICAS

MPMG

11- DICIEMBRE -2019

PCPN (mm)

T° MAX

T° MIN

VIENTO MAX (KT)

HORA

VIENTO PREDOM (KT)-

0.0

30.5

24.5

16006KT

1700Z

NW

 



Contador: 9710